Time;durP1;ratioP1;P1;durP2;ratioP2;P2;SDS_P1;SDS_P2;PMS_P1;PMS_P2;Temp;Humidity;BMP_temperature;BMP_pressure;BME280_temperature;BME280_humidity;BME280_pressure;Samples;Min_cycle;Max_cycle;Signal;HPM_P1;HPM_P2
2023/10/06 00:02:28;;;;;;;4.10;1.63;;;14.70;99.90;;;;;;5055532;28;20060;-56
2023/10/06 00:04:57;;;;;;;6.35;1.90;;;14.70;99.90;;;;;;5049888;28;20045;-56
2023/10/06 00:07:26;;;;;;;9.65;2.42;;;14.70;99.90;;;;;;5060300;28;20052;-56
2023/10/06 00:09:55;;;;;;;6.50;1.73;;;14.70;99.90;;;;;;5050475;28;20512;-57
2023/10/06 00:12:25;;;;;;;8.27;2.50;;;14.70;99.90;;;;;;5058157;28;20076;-56
2023/10/06 00:14:52;;;;;;;7.05;2.03;;;14.70;99.90;;;;;;5052007;28;20053;-57
2023/10/06 00:17:21;;;;;;;6.43;1.73;;;14.70;99.90;;;;;;5057421;28;20127;-57
2023/10/06 00:19:51;;;;;;;10.75;3.60;;;14.70;99.90;;;;;;5053276;28;20090;-56
2023/10/06 00:22:18;;;;;;;7.20;2.35;;;14.70;99.90;;;;;;5046248;28;20045;-57
2023/10/06 00:24:47;;;;;;;11.75;2.33;;;14.70;99.90;;;;;;5062105;28;20055;-56
2023/10/06 00:27:16;;;;;;;11.35;2.15;;;14.80;99.90;;;;;;5065064;28;20511;-55
2023/10/06 00:29:54;;;;;;;6.50;1.90;;;14.70;99.90;;;;;;5060602;28;20048;-56
2023/10/06 00:32:22;;;;;;;8.13;2.10;;;14.70;99.90;;;;;;5064214;28;20053;-56
2023/10/06 00:34:49;;;;;;;11.02;2.15;;;14.80;99.90;;;;;;5057915;28;20449;-57
2023/10/06 00:37:16;;;;;;;8.05;2.42;;;14.70;99.90;;;;;;4701576;28;10000353;-57
2023/10/06 00:39:43;;;;;;;13.80;2.20;;;14.70;99.90;;;;;;5055416;28;20056;-56
2023/10/06 00:42:14;;;;;;;12.00;2.20;;;14.80;99.90;;;;;;5066715;28;20080;-58
2023/10/06 00:44:45;;;;;;;9.63;1.92;;;14.80;99.90;;;;;;5059716;28;20115;-54
2023/10/06 00:47:13;;;;;;;7.03;1.95;;;14.80;99.90;;;;;;5048064;28;20134;-57
2023/10/06 00:49:40;;;;;;;8.55;1.92;;;14.80;99.90;;;;;;5053075;28;20045;-55
2023/10/06 00:52:07;;;;;;;9.82;1.75;;;14.80;99.90;;;;;;5048998;28;20272;-58
2023/10/06 00:54:34;;;;;;;6.57;2.30;;;14.80;99.90;;;;;;5060209;28;20526;-57
2023/10/06 00:57:08;;;;;;;12.35;2.35;;;14.80;99.90;;;;;;5048962;28;20072;-56
2023/10/06 00:59:36;;;;;;;9.30;2.40;;;14.80;99.90;;;;;;5059996;28;20048;-55
2023/10/06 01:02:11;;;;;;;14.48;2.38;;;14.80;99.90;;;;;;5048007;28;20107;-57
2023/10/06 01:04:44;;;;;;;5.85;1.90;;;14.90;99.90;;;;;;5053361;28;20048;-56
2023/10/06 01:07:13;;;;;;;;;;;14.90;99.90;;;;;;5068647;28;20139;-57
2023/10/06 01:09:57;;;;;;;8.40;2.78;;;14.80;99.90;;;;;;5062555;28;19924;-56
2023/10/06 01:12:27;;;;;;;6.03;1.50;;;14.80;99.90;;;;;;5028854;28;20045;-57
2023/10/06 01:15:09;;;;;;;10.18;2.10;;;14.80;99.90;;;;;;5049638;28;20053;-57
2023/10/06 01:17:36;;;;;;;7.15;1.80;;;14.80;99.90;;;;;;5067748;28;20105;-56
2023/10/06 01:20:03;;;;;;;13.15;2.47;;;14.70;99.90;;;;;;5054302;28;20045;-56
2023/10/06 01:22:41;;;;;;;6.43;2.00;;;14.70;99.90;;;;;;5068729;28;20412;-55
2023/10/06 01:25:13;;;;;;;4.07;2.15;;;14.70;99.90;;;;;;5063505;28;20045;-56
2023/10/06 01:27:43;;;;;;;6.22;1.90;;;14.70;99.90;;;;;;5028000;28;20049;-57
2023/10/06 01:30:17;;;;;;;9.30;2.10;;;14.70;99.90;;;;;;5036104;28;20110;-56
2023/10/06 01:32:50;;;;;;;7.78;2.13;;;14.70;99.90;;;;;;5048073;28;20123;-56
2023/10/06 01:35:23;;;;;;;7.40;2.17;;;14.70;99.90;;;;;;5053198;28;20041;-56
2023/10/06 01:37:51;;;;;;;13.50;2.38;;;14.70;99.90;;;;;;5047817;28;20045;-57
2023/10/06 01:42:51;;;;;;;11.18;2.60;;;14.80;99.90;;;;;;5065627;28;20510;-58
2023/10/06 01:45:21;;;;;;;6.32;1.60;;;14.70;99.90;;;;;;5063338;28;20044;-57
2023/10/06 01:48:31;;;;;;;7.00;1.50;;;14.70;99.90;;;;;;5064543;28;20052;-56
2023/10/06 01:50:39;;;;;;;11.70;2.92;;;14.70;99.90;;;;;;5051613;28;20451;-56
2023/10/06 01:53:07;;;;;;;8.40;2.47;;;14.70;99.90;;;;;;5064965;28;20048;-58
2023/10/06 01:55:39;;;;;;;10.55;2.55;;;14.70;99.90;;;;;;5062544;28;20114;-56
2023/10/06 01:58:11;;;;;;;7.50;2.08;;;14.70;99.90;;;;;;5051269;28;20049;-56
2023/10/06 02:00:38;;;;;;;9.32;2.42;;;14.70;99.90;;;;;;5047362;28;20067;-55
2023/10/06 02:03:09;;;;;;;9.88;2.25;;;14.70;99.90;;;;;;5029691;28;20049;-55
2023/10/06 02:05:40;;;;;;;12.77;2.17;;;14.60;99.90;;;;;;5051251;28;20046;-57
2023/10/06 02:08:14;;;;;;;10.50;1.92;;;14.60;99.90;;;;;;5050755;28;20136;-56
2023/10/06 02:10:43;;;;;;;7.05;1.80;;;14.60;99.90;;;;;;5051641;28;20201;-55
2023/10/06 02:13:10;;;;;;;9.85;2.20;;;14.60;99.90;;;;;;5059395;28;20048;-55
2023/10/06 02:15:36;;;;;;;11.82;2.25;;;14.50;99.90;;;;;;5063059;28;20114;-56
2023/10/06 02:18:07;;;;;;;5.10;1.83;;;14.50;99.90;;;;;;5057499;28;20053;-55
2023/10/06 02:20:34;;;;;;;8.85;2.30;;;14.50;99.90;;;;;;5049441;28;20057;-53
2023/10/06 02:23:03;;;;;;;6.82;2.25;;;14.50;99.90;;;;;;5038569;28;20048;-56
2023/10/06 02:25:31;;;;;;;6.75;2.10;;;14.50;99.90;;;;;;5048426;28;20041;-56
2023/10/06 02:28:04;;;;;;;8.23;2.08;;;14.50;99.90;;;;;;5049080;28;20384;-58
2023/10/06 02:30:33;;;;;;;9.25;2.30;;;14.40;99.90;;;;;;5030814;28;20103;-56
2023/10/06 02:33:01;;;;;;;10.90;2.10;;;14.50;99.90;;;;;;5055256;28;20106;-56
2023/10/06 02:35:27;;;;;;;4.95;1.58;;;14.50;99.90;;;;;;5066407;28;20123;-56
2023/10/06 02:37:57;;;;;;;10.38;2.80;;;14.50;99.90;;;;;;5051834;28;20049;-55
2023/10/06 02:40:30;;;;;;;8.52;2.47;;;14.50;99.90;;;;;;5047447;28;20711;-56
2023/10/06 02:42:57;;;;;;;8.27;2.42;;;14.50;99.90;;;;;;5041633;28;20553;-55
2023/10/06 02:45:30;;;;;;;11.55;1.73;;;14.50;99.90;;;;;;5047057;28;20481;-56
2023/10/06 02:47:58;;;;;;;8.57;2.42;;;14.50;99.90;;;;;;5050636;28;20559;-58
2023/10/06 02:50:26;;;;;;;11.05;2.10;;;14.40;99.90;;;;;;5038639;28;20076;-57
2023/10/06 02:52:53;;;;;;;12.45;2.38;;;14.40;99.90;;;;;;5050744;28;20488;-54
2023/10/06 02:55:21;;;;;;;14.93;2.95;;;14.50;99.90;;;;;;5065348;28;20136;-55
2023/10/06 02:57:51;;;;;;;11.15;3.35;;;14.40;99.90;;;;;;5062461;28;20053;-56
2023/10/06 03:02:48;;;;;;;9.50;2.03;;;14.40;99.90;;;;;;5050435;28;20064;-54
2023/10/06 03:05:15;;;;;;;12.38;2.15;;;14.40;99.90;;;;;;5062004;28;20048;-56
2023/10/06 03:07:45;;;;;;;9.35;2.63;;;14.40;99.90;;;;;;5061869;28;20049;-56
2023/10/06 03:10:12;;;;;;;7.18;2.00;;;14.40;99.90;;;;;;5046781;28;20052;-54
2023/10/06 03:12:39;;;;;;;6.70;2.05;;;14.40;99.90;;;;;;5054301;28;20048;-56
2023/10/06 03:15:27;;;;;;;5.78;1.95;;;14.40;99.90;;;;;;5061215;28;20071;-56
2023/10/06 03:17:54;;;;;;;7.13;1.75;;;14.40;99.90;;;;;;5065841;28;20041;-56
2023/10/06 03:23:25;;;;;;;9.93;2.35;;;14.40;99.90;;;;;;5066143;28;20048;-56
2023/10/06 03:25:56;;;;;;;8.10;2.15;;;14.50;99.90;;;;;;5054319;28;20484;-55
2023/10/06 03:28:31;;;;;;;14.40;1.83;;;14.50;99.90;;;;;;5062331;28;20053;-55
2023/10/06 03:31:02;;;;;;;7.90;2.63;;;14.50;99.90;;;;;;5050954;28;20049;-56
2023/10/06 03:33:30;;;;;;;12.68;2.25;;;14.50;99.90;;;;;;5050922;28;20405;-54
2023/10/06 03:35:57;;;;;;;9.85;2.53;;;14.50;99.90;;;;;;5069446;28;20048;-55
2023/10/06 03:46:14;;;;;;;6.97;1.90;;;14.50;99.90;;;;;;5051198;28;20047;-56
2023/10/06 03:48:40;;;;;;;16.33;2.28;;;14.60;99.90;;;;;;5057855;28;20044;-55
2023/10/06 03:51:07;;;;;;;7.78;2.28;;;14.60;99.90;;;;;;5048590;28;20090;-56
2023/10/06 03:53:34;;;;;;;9.00;2.30;;;14.60;99.90;;;;;;5067180;28;20056;-55
2023/10/06 03:56:01;;;;;;;15.02;2.25;;;14.60;99.90;;;;;;5060902;28;20045;-56
2023/10/06 03:58:28;;;;;;;10.15;2.38;;;14.60;99.90;;;;;;5048980;28;20053;-54
2023/10/06 04:00:55;;;;;;;12.27;2.67;;;14.60;99.90;;;;;;5055315;28;20548;-56
2023/10/06 04:03:22;;;;;;;7.28;2.35;;;14.60;99.90;;;;;;5049366;28;20057;-55
2023/10/06 04:05:51;;;;;;;10.43;2.13;;;14.60;99.90;;;;;;5053389;28;20045;-55
2023/10/06 04:08:22;;;;;;;7.78;1.50;;;14.60;99.90;;;;;;5049281;28;20049;-55
2023/10/06 04:10:51;;;;;;;9.98;2.08;;;14.60;99.90;;;;;;5054342;28;20057;-55
2023/10/06 04:13:20;;;;;;;10.10;3.08;;;14.60;99.90;;;;;;5052009;28;20102;-56
2023/10/06 04:15:49;;;;;;;8.98;1.85;;;14.50;99.90;;;;;;5057586;28;20052;-56
2023/10/06 04:18:21;;;;;;;6.47;2.10;;;14.50;99.90;;;;;;5065770;28;20056;-55
2023/10/06 04:20:49;;;;;;;11.32;2.95;;;14.50;99.90;;;;;;5053163;28;20496;-56
2023/10/06 04:23:17;;;;;;;9.52;2.72;;;14.60;99.90;;;;;;5067448;28;20040;-57
2023/10/06 04:25:44;;;;;;;8.60;2.42;;;14.60;99.90;;;;;;5047396;28;20477;-56
2023/10/06 04:28:15;;;;;;;5.95;2.20;;;14.50;99.90;;;;;;5052640;28;20515;-54
2023/10/06 04:30:45;;;;;;;7.75;2.28;;;14.50;99.90;;;;;;5052910;28;20049;-56
2023/10/06 04:33:14;;;;;;;7.95;1.92;;;14.50;99.90;;;;;;5063917;28;20044;-55
2023/10/06 04:35:47;;;;;;;12.00;2.53;;;14.50;99.90;;;;;;5057534;28;20041;-56
2023/10/06 04:38:14;;;;;;;7.90;2.95;;;14.50;99.90;;;;;;5048947;28;20126;-56
2023/10/06 04:40:41;;;;;;;13.63;2.35;;;14.60;99.90;;;;;;5034510;28;20044;-55
2023/10/06 04:43:09;;;;;;;5.28;2.08;;;14.60;99.90;;;;;;5060445;28;20514;-56
2023/10/06 04:45:38;;;;;;;12.18;2.50;;;14.60;99.90;;;;;;5064304;28;20053;-55
2023/10/06 04:48:07;;;;;;;7.50;2.58;;;14.60;99.90;;;;;;5058045;28;20056;-55
2023/10/06 04:50:35;;;;;;;7.80;1.70;;;14.60;99.90;;;;;;5033762;28;20053;-58
2023/10/06 04:53:05;;;;;;;9.30;1.98;;;14.60;99.90;;;;;;5057505;28;20125;-55
2023/10/06 04:55:37;;;;;;;17.52;2.50;;;14.60;99.90;;;;;;5066941;28;20048;-53
2023/10/06 04:58:13;;;;;;;8.70;2.03;;;14.60;99.90;;;;;;5059800;28;20049;-54
2023/10/06 05:00:40;;;;;;;7.28;2.17;;;14.60;99.90;;;;;;5049141;28;20041;-55
2023/10/06 05:03:10;;;;;;;9.85;2.53;;;14.60;99.90;;;;;;5058911;28;20099;-56
2023/10/06 05:05:42;;;;;;;11.95;2.75;;;14.60;99.90;;;;;;5048418;28;20075;-55
2023/10/06 05:08:09;;;;;;;13.15;3.35;;;14.60;99.90;;;;;;5056029;28;20346;-55
2023/10/06 05:10:37;;;;;;;7.00;2.15;;;14.60;99.90;;;;;;5050374;28;20048;-56
2023/10/06 05:13:06;;;;;;;9.27;2.25;;;14.60;99.90;;;;;;5061723;28;20053;-53
2023/10/06 05:15:37;;;;;;;9.43;2.28;;;14.60;99.90;;;;;;5048295;28;20045;-55
2023/10/06 05:18:04;;;;;;;10.88;2.50;;;14.60;99.90;;;;;;5059593;28;20044;-55
2023/10/06 05:20:32;;;;;;;7.93;2.42;;;14.60;99.90;;;;;;5047763;28;20127;-56
2023/10/06 05:23:02;;;;;;;9.23;2.58;;;14.60;99.90;;;;;;5052059;28;20456;-54
2023/10/06 05:25:31;;;;;;;12.27;2.35;;;14.60;99.90;;;;;;5067414;28;20108;-55
2023/10/06 05:27:59;;;;;;;8.52;2.13;;;14.60;99.90;;;;;;5063372;28;20469;-55
2023/10/06 05:30:27;;;;;;;8.50;2.13;;;14.60;99.90;;;;;;5032683;28;20128;-55
2023/10/06 05:32:57;;;;;;;9.45;2.50;;;14.60;99.90;;;;;;5048152;28;20049;-55
2023/10/06 05:35:28;;;;;;;5.32;1.90;;;14.50;99.90;;;;;;5047481;28;20049;-56
2023/10/06 05:37:57;;;;;;;21.45;4.00;;;14.50;99.90;;;;;;5053547;28;20047;-61
2023/10/06 05:40:25;;;;;;;7.00;1.80;;;14.50;99.90;;;;;;5054195;28;20049;-56
2023/10/06 05:42:52;;;;;;;8.98;3.65;;;14.50;99.90;;;;;;5044398;28;20102;-56
2023/10/06 05:45:19;;;;;;;6.18;1.63;;;14.60;99.90;;;;;;5051577;28;20049;-55
2023/10/06 05:47:46;;;;;;;8.65;2.10;;;14.50;99.90;;;;;;5047611;28;20549;-55
2023/10/06 05:50:29;;;;;;;13.48;2.78;;;14.60;99.90;;;;;;5039482;28;20049;-56
2023/10/06 05:52:59;;;;;;;7.25;2.30;;;14.60;99.90;;;;;;5039563;28;20044;-57
2023/10/06 05:55:33;;;;;;;8.70;2.40;;;14.50;99.90;;;;;;5040938;28;20060;-56
2023/10/06 05:58:04;;;;;;;8.10;2.30;;;14.60;99.90;;;;;;5037418;28;20412;-57
2023/10/06 06:00:31;;;;;;;14.13;2.58;;;14.60;99.90;;;;;;5040804;28;20054;-55
2023/10/06 06:03:10;;;;;;;9.15;3.00;;;14.60;99.90;;;;;;5030142;28;20132;-55
2023/10/06 06:05:38;;;;;;;5.00;2.05;;;14.60;99.90;;;;;;5034262;28;20180;-54
2023/10/06 06:08:09;;;;;;;9.38;2.42;;;14.60;99.90;;;;;;5044865;28;20059;-52
2023/10/06 06:10:36;;;;;;;4.35;1.77;;;14.60;99.90;;;;;;5051331;28;20304;-53
2023/10/06 06:13:03;;;;;;;6.65;2.15;;;14.60;99.90;;;;;;5042465;28;20091;-55
2023/10/06 06:15:31;;;;;;;7.00;3.13;;;14.60;99.90;;;;;;5030532;28;20073;-55
2023/10/06 06:17:58;;;;;;;11.43;2.78;;;14.60;99.90;;;;;;5035599;28;20140;-54
2023/10/06 06:20:26;;;;;;;10.45;2.33;;;14.60;99.90;;;;;;5055101;28;20102;-54
2023/10/06 06:22:59;;;;;;;8.55;2.45;;;14.60;99.90;;;;;;5036006;28;20088;-55
2023/10/06 06:25:26;;;;;;;5.20;2.03;;;14.60;99.90;;;;;;5051397;28;20068;-53
2023/10/06 06:27:54;;;;;;;7.18;1.92;;;14.60;99.90;;;;;;5027209;28;20049;-51
2023/10/06 06:30:24;;;;;;;14.38;3.53;;;14.60;99.90;;;;;;5027769;28;20041;-57
2023/10/06 06:32:55;;;;;;;13.52;2.67;;;14.60;99.90;;;;;;5032320;28;20049;-56
2023/10/06 06:35:23;;;;;;;9.20;2.35;;;14.50;99.90;;;;;;5046712;28;20140;-55
2023/10/06 06:37:52;;;;;;;9.82;3.30;;;14.60;99.90;;;;;;5044078;28;20041;-55
2023/10/06 06:40:20;;;;;;;11.73;2.65;;;14.60;99.90;;;;;;5024214;28;20119;-55
2023/10/06 06:42:48;;;;;;;10.13;2.63;;;14.50;99.90;;;;;;5052295;28;20129;-52
2023/10/06 06:45:15;;;;;;;14.75;3.28;;;14.50;99.90;;;;;;5050079;28;20048;-53
2023/10/06 06:47:42;;;;;;;10.98;2.80;;;14.50;99.90;;;;;;5037573;28;20099;-53
2023/10/06 06:50:13;;;;;;;12.15;3.08;;;14.50;99.90;;;;;;5051836;28;20097;-51
2023/10/06 06:52:41;;;;;;;11.20;2.97;;;14.50;99.90;;;;;;5056367;28;20080;-54
2023/10/06 06:55:14;;;;;;;10.70;2.55;;;14.50;99.90;;;;;;5039396;28;20038;-54
2023/10/06 06:57:45;;;;;;;7.60;2.25;;;14.50;99.90;;;;;;5048782;28;20073;-53
2023/10/06 07:00:24;;;;;;;16.63;3.03;;;14.50;99.90;;;;;;5036428;28;20136;-54
2023/10/06 07:02:52;;;;;;;8.88;2.42;;;14.50;99.90;;;;;;5041291;28;20060;-51
2023/10/06 07:05:20;;;;;;;11.80;3.13;;;14.60;99.90;;;;;;5039635;28;20096;-51
2023/10/06 07:07:50;;;;;;;8.65;2.03;;;14.60;99.90;;;;;;5059812;28;20059;-54
2023/10/06 07:10:20;;;;;;;9.70;2.78;;;14.60;99.90;;;;;;5039302;28;20079;-54
2023/10/06 07:12:50;;;;;;;11.20;2.35;;;14.70;99.90;;;;;;5043156;28;20049;-54
2023/10/06 07:15:18;;;;;;;12.40;2.70;;;14.70;99.90;;;;;;5041367;28;20049;-53
2023/10/06 07:17:47;;;;;;;14.48;2.70;;;14.80;99.90;;;;;;5043081;28;20108;-51
2023/10/06 07:20:16;;;;;;;10.50;2.60;;;14.80;99.90;;;;;;5036017;28;20578;-56
2023/10/06 07:22:45;;;;;;;13.23;3.22;;;14.80;99.90;;;;;;5029898;28;20049;-53
2023/10/06 07:25:15;;;;;;;23.80;2.80;;;14.90;99.90;;;;;;5036562;28;20053;-51
2023/10/06 07:27:47;;;;;;;8.02;2.38;;;15.00;99.90;;;;;;5043285;28;20045;-53
2023/10/06 07:30:22;;;;;;;8.82;2.78;;;15.00;99.90;;;;;;5034671;28;20041;-50
2023/10/06 07:32:50;;;;;;;14.23;2.72;;;15.00;99.90;;;;;;5037170;28;20049;-53
2023/10/06 07:35:18;;;;;;;13.07;3.17;;;15.10;99.90;;;;;;5041376;28;20080;-51
2023/10/06 07:37:47;;;;;;;8.65;2.53;;;15.10;99.90;;;;;;5030014;28;20033;-50
2023/10/06 07:40:18;;;;;;;13.93;3.13;;;15.20;99.90;;;;;;5039893;28;20045;-52
2023/10/06 07:42:46;;;;;;;10.85;3.60;;;15.10;99.90;;;;;;5043735;28;20439;-52
2023/10/06 07:45:14;;;;;;;12.25;3.65;;;15.20;99.90;;;;;;5032436;28;20095;-52
2023/10/06 07:47:42;;;;;;;8.18;2.65;;;15.20;99.90;;;;;;5043791;28;20049;-50
2023/10/06 07:50:12;;;;;;;5.05;2.22;;;15.30;99.90;;;;;;5051905;28;20049;-55
2023/10/06 07:52:43;;;;;;;11.55;2.38;;;15.30;99.90;;;;;;5053068;28;20399;-51
2023/10/06 07:55:11;;;;;;;9.32;2.65;;;15.30;99.90;;;;;;5028245;28;20048;-54
2023/10/06 07:57:41;;;;;;;8.32;2.28;;;15.40;99.90;;;;;;5047710;28;20064;-54
2023/10/06 08:00:12;;;;;;;11.05;2.92;;;15.50;99.90;;;;;;5036419;28;20143;-54
2023/10/06 08:02:39;;;;;;;7.53;2.42;;;15.60;99.90;;;;;;5040201;28;20057;-50
2023/10/06 08:05:13;;;;;;;9.27;2.35;;;15.60;99.90;;;;;;5049260;28;20044;-53
2023/10/06 08:07:42;;;;;;;14.55;2.70;;;15.70;99.90;;;;;;5039410;28;20489;-51
2023/10/06 08:10:16;;;;;;;10.07;2.50;;;15.70;99.90;;;;;;5041654;28;20053;-51
2023/10/06 08:12:56;;;;;;;;;;;15.70;99.90;;;;;;5047799;28;20056;-54
2023/10/06 08:15:25;;;;;;;10.90;2.55;;;15.70;99.90;;;;;;5039216;28;19936;-54
2023/10/06 08:17:55;;;;;;;9.23;2.25;;;15.80;99.90;;;;;;5050048;28;20555;-54
2023/10/06 08:20:24;;;;;;;8.88;2.58;;;15.90;99.90;;;;;;5036564;28;20068;-54
2023/10/06 08:22:52;;;;;;;10.60;2.55;;;15.90;99.90;;;;;;5041988;28;20099;-54
2023/10/06 08:25:20;;;;;;;10.90;2.70;;;16.00;99.90;;;;;;5044556;28;20049;-50
2023/10/06 08:27:48;;;;;;;7.80;2.05;;;16.10;99.90;;;;;;5040528;28;20643;-54
2023/10/06 08:30:16;;;;;;;14.10;3.33;;;16.10;99.90;;;;;;5046671;28;20179;-54
2023/10/06 08:32:46;;;;;;;8.38;2.38;;;16.10;99.90;;;;;;5050572;28;20048;-52
2023/10/06 08:35:14;;;;;;;8.07;2.33;;;16.20;99.90;;;;;;5047448;28;20135;-52
2023/10/06 08:37:42;;;;;;;9.13;2.30;;;16.30;99.90;;;;;;5036079;28;20046;-51
2023/10/06 08:40:16;;;;;;;8.07;2.67;;;16.40;99.90;;;;;;5037069;28;20049;-53
2023/10/06 08:42:45;;;;;;;;;;;16.40;99.90;;;;;;5039914;28;20496;-54
2023/10/06 08:45:13;;;;;;;7.57;2.35;;;16.40;99.90;;;;;;5061305;28;20311;-51
2023/10/06 08:47:41;;;;;;;5.35;1.90;;;16.50;99.90;;;;;;5020117;28;20061;-53
2023/10/06 08:50:27;;;;;;;12.68;4.10;;;16.60;99.90;;;;;;5045912;28;20102;-53
2023/10/06 08:52:55;;;;;;;9.02;2.58;;;16.60;99.90;;;;;;5028305;28;20038;-53
2023/10/06 08:55:25;;;;;;;9.73;2.25;;;16.70;99.90;;;;;;5046817;28;20045;-53
2023/10/06 08:57:52;;;;;;;13.00;2.65;;;16.70;99.90;;;;;;5047517;28;20361;-54
2023/10/06 09:00:31;;;;;;;12.75;2.55;;;16.80;99.90;;;;;;5042347;28;20054;-52
2023/10/06 09:03:07;;;;;;;13.80;3.55;;;16.80;99.90;;;;;;5027914;28;20062;-52
2023/10/06 09:05:40;;;;;;;9.95;2.55;;;16.90;99.90;;;;;;5043197;28;20519;-55
2023/10/06 09:08:08;;;;;;;13.02;3.55;;;17.00;99.90;;;;;;5034455;28;20394;-53
2023/10/06 09:10:40;;;;;;;5.30;2.03;;;17.00;99.90;;;;;;5029446;28;20548;-53
2023/10/06 09:13:08;;;;;;;8.88;2.38;;;17.00;99.90;;;;;;5016122;28;20049;-54
2023/10/06 09:15:35;;;;;;;4.30;1.73;;;17.10;99.90;;;;;;5050702;28;20504;-53
2023/10/06 09:18:20;;;;;;;4.43;1.60;;;17.00;99.90;;;;;;5055198;28;20132;-55
2023/10/06 09:20:48;;;;;;;6.55;2.25;;;17.10;99.90;;;;;;5052790;28;20055;-52
2023/10/06 09:23:49;;;;;;;18.77;3.38;;;17.20;99.90;;;;;;5027173;28;20057;-52
2023/10/06 09:26:26;;;;;;;8.10;2.10;;;17.20;99.90;;;;;;5010387;28;20049;-50
2023/10/06 09:28:55;;;;;;;8.32;2.28;;;17.20;99.90;;;;;;5050615;28;20514;-51
2023/10/06 09:31:41;;;;;;;8.20;2.70;;;17.30;99.90;;;;;;5040109;28;20363;-54
2023/10/06 09:34:08;;;;;;;6.20;2.05;;;17.30;99.90;;;;;;5027096;28;20136;-52
2023/10/06 09:36:38;;;;;;;5.80;1.70;;;17.30;99.90;;;;;;5014611;28;20051;-54
2023/10/06 09:39:14;;;;;;;7.55;2.15;;;17.30;99.90;;;;;;5027769;28;20061;-50
2023/10/06 09:41:42;;;;;;;8.60;2.03;;;17.30;99.90;;;;;;5057388;28;20442;-51
2023/10/06 09:44:11;;;;;;;11.13;2.25;;;17.40;99.90;;;;;;5046473;28;20491;-52
2023/10/06 09:46:41;;;;;;;6.65;1.92;;;17.40;99.90;;;;;;5035725;28;20043;-54
2023/10/06 09:49:09;;;;;;;6.78;1.95;;;17.50;99.90;;;;;;5047380;28;20050;-51
2023/10/06 09:51:36;;;;;;;6.38;1.73;;;17.60;99.90;;;;;;5015305;28;20052;-52
2023/10/06 09:54:09;;;;;;;8.93;2.25;;;17.70;99.90;;;;;;5050759;28;20052;-51
2023/10/06 09:56:42;;;;;;;11.10;2.92;;;17.80;99.90;;;;;;5051927;28;20095;-52
2023/10/06 09:59:12;;;;;;;5.20;1.93;;;17.90;99.90;;;;;;5063638;28;20049;-52
2023/10/06 10:01:42;;;;;;;6.75;1.92;;;17.90;99.90;;;;;;5062498;28;20307;-54
2023/10/06 10:04:12;;;;;;;11.02;2.55;;;18.00;99.90;;;;;;5052924;28;20045;-54
2023/10/06 10:06:45;;;;;;;6.10;2.38;;;18.00;99.90;;;;;;5033321;28;20071;-53
2023/10/06 10:09:16;;;;;;;4.50;2.00;;;18.10;99.90;;;;;;5060631;28;20144;-54
2023/10/06 10:11:52;;;;;;;5.45;2.55;;;18.20;99.90;;;;;;5045990;28;20049;-54
2023/10/06 10:14:41;;;;;;;5.78;2.25;;;18.10;99.90;;;;;;5029947;28;20053;-54
2023/10/06 10:17:34;;;;;;;11.65;2.30;;;18.20;99.90;;;;;;5062510;28;20045;-53
2023/10/06 10:20:01;;;;;;;10.88;3.92;;;18.20;99.90;;;;;;5008446;28;20381;-55
2023/10/06 10:22:31;;;;;;;4.13;1.65;;;18.20;99.90;;;;;;5050359;28;20044;-51
2023/10/06 10:25:00;;;;;;;7.32;1.90;;;18.20;99.90;;;;;;5046890;28;20041;-54
2023/10/06 10:27:30;;;;;;;5.20;1.80;;;18.20;99.90;;;;;;5037931;28;20561;-54
2023/10/06 10:29:57;;;;;;;6.07;2.03;;;18.20;99.90;;;;;;5046965;28;20462;-52
2023/10/06 10:32:24;;;;;;;11.05;3.28;;;18.20;99.90;;;;;;5030945;28;20436;-53
2023/10/06 10:35:18;;;;;;;6.80;2.17;;;18.20;99.90;;;;;;5059639;28;20523;-52
2023/10/06 10:37:52;;;;;;;6.43;2.70;;;18.20;99.90;;;;;;5039954;28;20068;-53
2023/10/06 10:40:23;;;;;;;7.25;2.50;;;18.20;99.90;;;;;;5056986;28;20045;-53
2023/10/06 10:43:04;;;;;;;6.97;2.40;;;18.20;99.90;;;;;;5055588;28;20102;-53
2023/10/06 10:45:35;;;;;;;10.13;2.00;;;18.30;99.90;;;;;;5054508;28;20049;-52
2023/10/06 10:48:06;;;;;;;7.20;2.78;;;18.30;99.90;;;;;;5054777;28;20052;-53
2023/10/06 10:50:58;;;;;;;6.50;2.33;;;18.40;99.90;;;;;;5063747;28;20051;-51
2023/10/06 10:53:29;;;;;;;4.57;1.90;;;18.40;99.90;;;;;;5063855;28;20048;-54
2023/10/06 10:55:56;;;;;;;4.88;2.42;;;18.50;99.90;;;;;;5065262;28;20555;-53
2023/10/06 10:58:45;;;;;;;7.55;2.90;;;18.60;99.90;;;;;;5065223;28;20048;-50
2023/10/06 11:01:31;;;;;;;7.18;2.50;;;18.70;99.90;;;;;;5045891;28;20512;-53
2023/10/06 11:04:18;;;;;;;4.80;1.67;;;18.80;99.90;;;;;;5054479;28;20053;-50
2023/10/06 11:06:46;;;;;;;8.68;2.70;;;18.80;99.90;;;;;;5051908;28;20044;-50
2023/10/06 11:09:28;;;;;;;8.82;2.28;;;18.80;99.90;;;;;;5064347;28;20036;-53
2023/10/06 11:12:00;;;;;;;6.13;2.30;;;18.70;99.90;;;;;;5067885;28;20052;-53
2023/10/06 11:14:49;;;;;;;8.98;2.00;;;18.70;99.90;;;;;;5042810;28;20128;-52
2023/10/06 11:17:24;;;;;;;8.32;2.05;;;18.80;99.90;;;;;;5040786;28;20422;-51
2023/10/06 11:20:13;;;;;;;6.75;2.20;;;18.80;99.90;;;;;;5053839;28;20123;-54
2023/10/06 11:23:00;;;;;;;8.43;2.80;;;18.90;99.90;;;;;;5013220;28;20140;-52
2023/10/06 11:25:28;;;;;;;8.05;2.78;;;18.90;99.90;;;;;;5040642;28;20159;-52
2023/10/06 11:28:16;;;;;;;6.10;2.17;;;19.00;99.90;;;;;;5070679;28;20083;-55
2023/10/06 11:30:42;;;;;;;5.65;2.20;;;19.20;99.90;;;;;;5062247;28;20495;-53
2023/10/06 11:33:11;;;;;;;5.90;1.83;;;19.30;99.90;;;;;;5049864;28;20070;-54
2023/10/06 11:35:40;;;;;;;10.60;2.83;;;19.30;99.90;;;;;;5034558;28;20052;-52
2023/10/06 11:38:11;;;;;;;4.65;2.05;;;19.30;99.90;;;;;;5069953;28;20400;-51
2023/10/06 11:40:38;;;;;;;6.22;3.10;;;19.40;99.90;;;;;;5047451;28;20068;-52
2023/10/06 11:43:17;;;;;;;5.70;2.13;;;19.40;99.90;;;;;;5050098;28;20082;-53
2023/10/06 11:45:44;;;;;;;4.45;1.90;;;19.50;99.90;;;;;;5050388;28;20229;-50
2023/10/06 11:48:31;;;;;;;9.43;2.40;;;19.50;99.90;;;;;;5049188;28;20041;-51
2023/10/06 11:51:08;;;;;;;6.70;2.15;;;19.50;99.90;;;;;;5036159;28;20049;-54
2023/10/06 11:53:36;;;;;;;9.38;1.90;;;19.50;99.90;;;;;;5029548;28;20469;-51
2023/10/06 11:56:12;;;;;;;8.27;2.53;;;19.50;99.90;;;;;;5031540;28;20059;-53
2023/10/06 11:58:42;;;;;;;7.20;1.85;;;19.50;99.90;;;;;;5029849;28;20045;-52
2023/10/06 12:01:43;;;;;;;10.32;2.42;;;19.40;99.90;;;;;;5054257;28;20548;-54
2023/10/06 12:04:23;;;;;;;9.57;3.13;;;19.30;99.90;;;;;;5029581;28;20550;-53
2023/10/06 12:06:51;;;;;;;4.25;2.15;;;19.10;99.90;;;;;;5046947;28;20079;-52
2023/10/06 12:09:25;;;;;;;9.32;2.42;;;19.10;99.90;;;;;;5068611;28;20109;-58
2023/10/06 12:11:55;;;;;;;6.22;2.30;;;19.10;99.90;;;;;;5053674;28;20040;-54
2023/10/06 12:14:25;;;;;;;3.45;2.00;;;19.10;99.90;;;;;;5048906;28;20043;-50
2023/10/06 12:16:54;;;;;;;5.57;2.42;;;19.20;99.90;;;;;;5034314;28;20049;-51
2023/10/06 12:19:22;;;;;;;6.80;2.17;;;19.30;99.90;;;;;;5028397;28;20056;-53
2023/10/06 12:21:50;;;;;;;6.68;2.67;;;19.40;99.90;;;;;;5035451;28;20519;-54
2023/10/06 12:24:18;;;;;;;13.40;3.22;;;19.60;99.90;;;;;;5052900;28;20416;-52
2023/10/06 12:26:46;;;;;;;10.60;2.58;;;19.70;99.90;;;;;;5049588;28;20049;-54
2023/10/06 12:29:17;;;;;;;5.00;2.42;;;19.80;99.90;;;;;;5065478;28;20048;-54
2023/10/06 12:31:45;;;;;;;7.03;2.38;;;19.80;99.90;;;;;;5063789;28;20052;-53
2023/10/06 12:34:15;;;;;;;4.00;2.38;;;19.90;99.90;;;;;;5054241;28;20057;-54
2023/10/06 12:36:47;;;;;;;4.85;2.17;;;20.00;99.90;;;;;;5036570;28;20192;-52
2023/10/06 12:39:20;;;;;;;7.20;2.30;;;20.10;99.90;;;;;;5054612;28;20053;-53
2023/10/06 12:41:47;;;;;;;7.25;2.88;;;20.20;99.90;;;;;;5052591;28;20075;-51
2023/10/06 12:44:14;;;;;;;5.53;2.30;;;20.10;99.90;;;;;;5056097;28;20095;-53
2023/10/06 12:46:41;;;;;;;10.43;4.10;;;20.20;99.90;;;;;;5052141;28;20186;-53
2023/10/06 12:49:07;;;;;;;7.30;2.22;;;20.20;99.90;;;;;;5057997;28;20483;-52
2023/10/06 12:51:35;;;;;;;10.00;2.40;;;20.20;99.90;;;;;;5064729;28;20067;-54
2023/10/06 12:54:03;;;;;;;7.13;2.72;;;20.30;99.90;;;;;;5059470;28;20056;-54
2023/10/06 12:56:31;;;;;;;8.63;2.92;;;20.50;99.90;;;;;;5031030;28;20049;-52
2023/10/06 12:58:58;;;;;;;4.00;2.13;;;20.60;99.90;;;;;;5056931;28;20492;-54
2023/10/06 13:01:25;;;;;;;9.18;2.53;;;20.60;99.90;;;;;;5068220;28;20470;-56
2023/10/06 13:03:53;;;;;;;6.55;3.13;;;20.60;99.90;;;;;;5042442;28;20281;-55
2023/10/06 13:06:22;;;;;;;6.90;2.95;;;20.80;99.90;;;;;;5048250;28;20049;-55
2023/10/06 13:08:50;;;;;;;6.40;3.00;;;20.90;99.90;;;;;;5053349;28;20051;-55
2023/10/06 13:11:18;;;;;;;8.05;2.55;;;20.80;99.90;;;;;;5068575;28;20063;-54
2023/10/06 13:13:49;;;;;;;7.63;2.15;;;20.90;99.90;;;;;;5052099;28;20053;-55
2023/10/06 13:16:17;;;;;;;8.88;2.50;;;20.90;99.90;;;;;;5028503;28;20049;-55
2023/10/06 13:18:43;;;;;;;8.75;3.83;;;20.90;99.90;;;;;;5046408;28;20053;-54
2023/10/06 13:21:11;;;;;;;6.63;2.17;;;20.90;99.90;;;;;;5066146;28;20041;-55